Ypsilanti, MI (48198)

10:31 AM EST on February 14, 2016 (GMT -0500)
Ypsilanti Twp NE | | Change Station
CLOSE
Current Station
Personal Weather Station
Location: Ypsilanti, MI
Elevation: 761 ft
Nearby Weather Stations

Elev 761 ft 42.26 °N, 83.59 °W | Updated 59 seconds ago

Clear
Clear
14.3 °F
Feels Like 8 °F
N
4.0
Wind Variable Wind from SSE
Gusts 6.0 mph

Today
High -- | Low -- °F
--% Chance of Precip.
Yesterday
High -- | Low -- °F
Precip. -- in
Pressure 30.50 in
Visibility 10.0 miles
Clouds Clear
Windchill 8 °F
Dew Point 5 °F
Humidity 66%
Rainfall in
Snow Depth Not available.
7:32 AM 6:05 PM
Waxing Crescent, 42% visible
METAR KYIP 141453Z AUTO 00000KT 10SM CLR M09/M13 A3046 RMK AO2 SLP328 T10891128 50002 TSNO
Pressure 30.50 in
Visibility 10.0 miles
Clouds Clear
Windchill 8 °F
Dew Point 5 °F
Humidity 66%
Rainfall in
Snow Depth Not available.
7:32 AM 6:05 PM
Waxing Crescent, 42% visible
METAR KYIP 141453Z AUTO 00000KT 10SM CLR M09/M13 A3046 RMK AO2 SLP328 T10891128 50002 TSNO

10-Day Weather Forecast

Almanac

Astronomy

Feb. 14, 2016 Rise Set
Actual Time
Civil Twilight
Nautical Twilight
Astronomical Twilight
Moon
Length of Visible Light
Length of Day
Tomorrow will be .
, % of the Moon is Illuminated

Today's Extremes

State Highs State Lows

Community

WunderPhotos

Upload Photos

1,892,795 photos uploaded!

WunderBlog® & News

Nearby

Air Quality

  Air Quality AQ Index Pollutant
Not available.

Snow Depth

Station Depth Elevation

Earthquake Activity

City Distance Mag. Time & Date
Minimum magnitude displayed is 2.5.

Coastal Water Temperatures

Place Temperature

Stations

Nearby Weather Stations

Station Location Temp. Windchill Dew Point Humidity Wind Precip. Elev Updated Type
                   

Watches & Warnings

There are currently no watches in effect.